Time;durP1;ratioP1;P1;durP2;ratioP2;P2;SDS_P1;SDS_P2;PMS_P1;PMS_P2;Temp;Humidity;BMP_temperature;BMP_pressure;BME280_temperature;BME280_humidity;BME280_pressure;Samples;Min_cycle;Max_cycle;Signal;HPM_P1;HPM_P2
2023/03/21 00:01:02;;;;;;;6.28;2.53;;;;;;;;;;5065252;28;20560;-72
2023/03/21 00:03:28;;;;;;;6.88;2.47;;;;;;;;;;5065879;28;20021;-72
2023/03/21 00:05:54;;;;;;;6.03;2.67;;;;;;;;;;5058755;28;20032;-72
2023/03/21 00:08:20;;;;;;;8.00;2.50;;;;;;;;;;5063518;28;20037;-72
2023/03/21 00:10:46;;;;;;;6.20;2.53;;;;;;;;;;5065498;28;20055;-72
2023/03/21 00:13:13;;;;;;;6.80;2.75;;;;;;;;;;5064756;28;20135;-72
2023/03/21 00:15:49;;;;;;;9.30;3.20;;;;;;;;;;5064607;28;20108;-72
2023/03/21 00:18:15;;;;;;;7.85;3.38;;;;;;;;;;5063967;28;20036;-72
2023/03/21 00:20:45;;;;;;;6.45;2.90;;;;;;;;;;5062329;28;20032;-72
2023/03/21 00:23:10;;;;;;;10.77;3.80;;;;;;;;;;5064497;28;20032;-72
2023/03/21 00:25:36;;;;;;;7.47;3.00;;;;;;;;;;5063845;28;20033;-72
2023/03/21 00:28:01;;;;;;;10.05;2.92;;;;;;;;;;5065460;28;20351;-72
2023/03/21 00:30:27;;;;;;;8.02;2.95;;;;;;;;;;5064145;28;20020;-72
2023/03/21 00:32:52;;;;;;;7.07;2.88;;;;;;;;;;5065602;28;20029;-72
2023/03/21 00:35:18;;;;;;;7.95;3.20;;;;;;;;;;5066260;28;20037;-72
2023/03/21 00:37:43;;;;;;;7.32;3.38;;;;;;;;;;5069691;28;20056;-72
2023/03/21 00:40:09;;;;;;;11.43;3.90;;;;;;;;;;5069310;28;20028;-72
2023/03/21 00:42:35;;;;;;;9.75;3.47;;;;;;;;;;5069961;28;20028;-72
2023/03/21 00:45:02;;;;;;;7.93;3.00;;;;;;;;;;5066413;28;20035;-72
2023/03/21 00:47:27;;;;;;;9.63;3.67;;;;;;;;;;5068983;28;20411;-72
2023/03/21 00:49:52;;;;;;;9.73;3.55;;;;;;;;;;5068878;28;20029;-73
2023/03/21 00:52:18;;;;;;;6.47;3.22;;;;;;;;;;5067048;28;20443;-72
2023/03/21 00:54:43;;;;;;;6.03;2.97;;;;;;;;;;5068824;28;20458;-72
2023/03/21 00:57:09;;;;;;;9.80;3.83;;;;;;;;;;5067871;28;20052;-72
2023/03/21 00:59:34;;;;;;;15.93;3.13;;;;;;;;;;5066473;28;20048;-72
2023/03/21 01:01:59;;;;;;;8.70;4.03;;;;;;;;;;5068899;28;20036;-72
2023/03/21 01:04:25;;;;;;;8.68;3.42;;;;;;;;;;5068603;28;20202;-72
2023/03/21 01:06:52;;;;;;;13.82;3.67;;;;;;;;;;5068721;28;20028;-72
2023/03/21 01:09:21;;;;;;;9.55;3.20;;;;;;;;;;5068809;28;20025;-72
2023/03/21 01:11:47;;;;;;;9.25;3.28;;;;;;;;;;5068039;28;20078;-72
2023/03/21 01:14:15;;;;;;;6.32;3.13;;;;;;;;;;5067872;28;20820;-72
2023/03/21 01:16:41;;;;;;;7.60;3.35;;;;;;;;;;5066161;28;20423;-72
2023/03/21 01:19:08;;;;;;;9.40;3.65;;;;;;;;;;5066472;28;20490;-72
2023/03/21 01:21:34;;;;;;;10.70;3.38;;;;;;;;;;5067282;28;20726;-72
2023/03/21 01:24:00;;;;;;;10.90;3.75;;;;;;;;;;5068250;28;20581;-72
2023/03/21 01:26:26;;;;;;;9.48;3.90;;;;;;;;;;5068444;28;20698;-72
2023/03/21 01:28:51;;;;;;;8.82;3.63;;;;;;;;;;5067479;28;20115;-72
2023/03/21 01:31:17;;;;;;;8.43;3.20;;;;;;;;;;5068457;28;20060;-72
2023/03/21 01:33:43;;;;;;;8.80;3.40;;;;;;;;;;5068551;28;20020;-72
2023/03/21 01:36:15;;;;;;;11.60;3.53;;;;;;;;;;5066540;28;20024;-72
2023/03/21 01:38:41;;;;;;;9.40;3.40;;;;;;;;;;5067415;28;20479;-72
2023/03/21 01:41:17;;;;;;;5.13;2.90;;;;;;;;;;5067753;28;20033;-72
2023/03/21 01:43:42;;;;;;;7.38;3.08;;;;;;;;;;5065593;28;20039;-73
2023/03/21 01:46:30;;;;;;;7.55;3.50;;;;;;;;;;5068338;28;20115;-72
2023/03/21 01:49:01;;;;;;;12.45;3.53;;;;;;;;;;5067502;28;20028;-72
2023/03/21 01:51:27;;;;;;;6.85;3.10;;;;;;;;;;5066808;28;20029;-72
2023/03/21 01:53:54;;;;;;;10.25;2.58;;;;;;;;;;5067562;28;20063;-73
2023/03/21 01:56:26;;;;;;;8.00;2.90;;;;;;;;;;5065878;28;20056;-72
2023/03/21 01:58:56;;;;;;;14.07;3.58;;;;;;;;;;5067552;28;20102;-72
2023/03/21 02:01:22;;;;;;;13.80;3.53;;;;;;;;;;5067761;28;20033;-72
2023/03/21 02:03:50;;;;;;;10.45;3.05;;;;;;;;;;5063266;28;20024;-72
2023/03/21 02:06:30;;;;;;;9.20;2.85;;;;;;;;;;5054130;28;20025;-72
2023/03/21 02:09:00;;;;;;;8.70;3.20;;;;;;;;;;5047572;28;20461;-72
2023/03/21 02:11:28;;;;;;;10.25;2.90;;;;;;;;;;5048100;28;20037;-72
2023/03/21 02:13:54;;;;;;;10.20;3.33;;;;;;;;;;5047434;28;20167;-72
2023/03/21 02:16:33;;;;;;;10.50;2.90;;;;;;;;;;5044914;28;20037;-72
2023/03/21 02:18:58;;;;;;;9.27;3.22;;;;;;;;;;5062218;28;20028;-72
2023/03/21 02:21:52;;;;;;;7.50;3.58;;;;;;;;;;5047348;28;20016;-72
2023/03/21 02:24:32;;;;;;;;;;;;;;;;;;5059391;28;20029;-72
2023/03/21 02:27:21;;;;;;;9.00;3.22;;;;;;;;;;5076850;28;19962;-72
2023/03/21 02:30:10;;;;;;;6.10;2.92;;;;;;;;;;5066413;28;20541;-72
2023/03/21 02:32:54;;;;;;;9.63;3.72;;;;;;;;;;5066851;28;20098;-72
2023/03/21 02:35:48;;;;;;;6.25;3.25;;;;;;;;;;5066769;28;20037;-72
2023/03/21 02:38:25;;;;;;;;;;;;;;;;;;5067736;28;20067;-72
2023/03/21 02:41:03;;;;;;;9.23;3.78;;;;;;;;;;5066222;28;19923;-72
2023/03/21 02:43:41;;;;;;;14.82;4.45;;;;;;;;;;5066938;28;20624;-72
2023/03/21 02:46:14;;;;;;;11.73;3.95;;;;;;;;;;5065040;28;20028;-72
2023/03/21 02:49:21;;;;;;;8.18;4.22;;;;;;;;;;5067599;28;20039;-72
2023/03/21 02:51:49;;;;;;;11.43;4.10;;;;;;;;;;5044877;28;20037;-72
2023/03/21 02:54:18;;;;;;;9.57;3.45;;;;;;;;;;5045524;28;20051;-72
2023/03/21 02:56:45;;;;;;;10.55;3.92;;;;;;;;;;5062570;28;20043;-72
2023/03/21 02:59:13;;;;;;;15.73;3.80;;;;;;;;;;5066140;28;20086;-72
2023/03/21 03:01:38;;;;;;;15.65;4.45;;;;;;;;;;5066809;28;20042;-72
2023/03/21 03:04:03;;;;;;;10.95;4.35;;;;;;;;;;5065181;28;20037;-72
2023/03/21 03:07:06;;;;;;;12.45;4.40;;;;;;;;;;5063218;28;20457;-72
2023/03/21 03:09:52;;;;;;;5.75;3.72;;;;;;;;;;5065060;28;20052;-72
2023/03/21 03:12:39;;;;;;;10.68;4.03;;;;;;;;;;5066780;28;20415;-72
2023/03/21 03:15:25;;;;;;;10.93;3.85;;;;;;;;;;5064361;28;20063;-72
2023/03/21 03:18:10;;;;;;;9.25;4.15;;;;;;;;;;5064290;28;20041;-72
2023/03/21 03:20:52;;;;;;;12.02;4.20;;;;;;;;;;5065929;28;20036;-72
2023/03/21 03:23:45;;;;;;;6.38;3.72;;;;;;;;;;5065998;28;20043;-72
2023/03/21 03:26:16;;;;;;;11.53;4.90;;;;;;;;;;5065036;28;20067;-72
2023/03/21 03:28:45;;;;;;;10.38;4.53;;;;;;;;;;5065175;28;20033;-72
2023/03/21 03:31:13;;;;;;;13.52;5.00;;;;;;;;;;5065654;28;20178;-72
2023/03/21 03:33:43;;;;;;;11.45;4.93;;;;;;;;;;5066203;28;20062;-72
2023/03/21 03:36:13;;;;;;;6.97;3.88;;;;;;;;;;5059077;28;20097;-72
2023/03/21 03:38:39;;;;;;;12.18;5.13;;;;;;;;;;5065838;28;20044;-72
2023/03/21 03:41:17;;;;;;;13.45;5.10;;;;;;;;;;5064139;28;20036;-72
2023/03/21 03:43:47;;;;;;;14.63;4.60;;;;;;;;;;5064382;28;20032;-72
2023/03/21 03:46:34;;;;;;;10.10;4.53;;;;;;;;;;5065124;28;20037;-72
2023/03/21 03:49:15;;;;;;;13.02;5.28;;;;;;;;;;5065189;28;20063;-72
2023/03/21 03:51:51;;;;;;;11.93;4.53;;;;;;;;;;5065481;28;20032;-72
2023/03/21 03:54:21;;;;;;;15.95;4.78;;;;;;;;;;5064511;28;20453;-72
2023/03/21 03:56:47;;;;;;;15.23;4.97;;;;;;;;;;5064651;28;20043;-72
2023/03/21 03:59:18;;;;;;;15.60;5.10;;;;;;;;;;5065051;28;20590;-72
2023/03/21 04:01:44;;;;;;;17.23;5.10;;;;;;;;;;5065376;28;20044;-72
2023/03/21 04:04:10;;;;;;;14.70;4.70;;;;;;;;;;5063803;28;20036;-72
2023/03/21 04:06:35;;;;;;;12.00;4.65;;;;;;;;;;5065411;28;20566;-72
2023/03/21 04:09:03;;;;;;;13.80;5.22;;;;;;;;;;5065091;28;20123;-72
2023/03/21 04:11:28;;;;;;;14.90;5.75;;;;;;;;;;5059192;28;20818;-72
2023/03/21 04:13:54;;;;;;;11.15;4.72;;;;;;;;;;5060524;28;20047;-72
2023/03/21 04:16:19;;;;;;;16.10;4.95;;;;;;;;;;5044886;28;20123;-72
2023/03/21 04:18:45;;;;;;;12.05;4.80;;;;;;;;;;5045136;28;20510;-72
2023/03/21 04:21:12;;;;;;;12.65;5.07;;;;;;;;;;5045547;28;20440;-72
2023/03/21 04:23:38;;;;;;;10.63;4.93;;;;;;;;;;5045187;28;20033;-72
2023/03/21 04:26:04;;;;;;;14.65;5.97;;;;;;;;;;5058401;28;20419;-72
2023/03/21 04:28:32;;;;;;;9.65;4.90;;;;;;;;;;5060177;28;20123;-72
2023/03/21 04:30:58;;;;;;;12.77;4.47;;;;;;;;;;5064138;28;20043;-72
2023/03/21 04:33:26;;;;;;;10.88;4.38;;;;;;;;;;5065675;28;20062;-72
2023/03/21 04:35:55;;;;;;;10.23;4.57;;;;;;;;;;5065126;28;20113;-72
2023/03/21 04:38:29;;;;;;;13.77;4.97;;;;;;;;;;5061704;28;20050;-72
2023/03/21 04:40:58;;;;;;;15.52;4.95;;;;;;;;;;5064905;28;20044;-72
2023/03/21 04:43:24;;;;;;;10.52;4.82;;;;;;;;;;5064528;28;20622;-72
2023/03/21 04:45:50;;;;;;;12.15;4.75;;;;;;;;;;5063480;28;20028;-72
2023/03/21 04:48:18;;;;;;;12.20;4.63;;;;;;;;;;5065848;28;20115;-72
2023/03/21 04:50:44;;;;;;;13.30;5.28;;;;;;;;;;5064384;28;20043;-72
2023/03/21 04:53:09;;;;;;;17.27;4.55;;;;;;;;;;5060980;28;20233;-73
2023/03/21 04:55:35;;;;;;;13.93;4.80;;;;;;;;;;5062610;28;20546;-72
2023/03/21 04:58:04;;;;;;;14.60;5.15;;;;;;;;;;5064096;28;20509;-72
2023/03/21 05:00:29;;;;;;;10.38;4.15;;;;;;;;;;5065151;28;20745;-72
2023/03/21 05:02:56;;;;;;;18.80;4.57;;;;;;;;;;5064488;28;20037;-72
2023/03/21 05:05:22;;;;;;;10.70;5.18;;;;;;;;;;5062027;28;20051;-72
2023/03/21 05:07:47;;;;;;;12.93;4.97;;;;;;;;;;5062671;28;20037;-72
2023/03/21 05:10:12;;;;;;;12.05;4.35;;;;;;;;;;5064287;28;20649;-72
2023/03/21 05:12:38;;;;;;;10.98;4.60;;;;;;;;;;5065155;28;20689;-72
2023/03/21 05:15:04;;;;;;;15.20;4.72;;;;;;;;;;5064604;28;20044;-72
2023/03/21 05:17:29;;;;;;;12.73;4.38;;;;;;;;;;5062407;28;20060;-72
2023/03/21 05:19:55;;;;;;;9.00;4.38;;;;;;;;;;5064112;28;20291;-72
2023/03/21 05:22:23;;;;;;;13.50;4.85;;;;;;;;;;5068018;28;20028;-72
2023/03/21 05:24:49;;;;;;;11.32;4.35;;;;;;;;;;5066387;28;20028;-73
2023/03/21 05:27:32;;;;;;;12.50;4.47;;;;;;;;;;5067500;28;20442;-73
2023/03/21 05:29:59;;;;;;;13.32;4.90;;;;;;;;;;5066783;28;20475;-73
2023/03/21 05:32:25;;;;;;;13.85;5.15;;;;;;;;;;5067613;28;20033;-73
2023/03/21 05:34:50;;;;;;;11.68;4.45;;;;;;;;;;5067857;28;20086;-73
2023/03/21 05:37:15;;;;;;;12.45;4.80;;;;;;;;;;5068337;28;20056;-73
2023/03/21 05:39:41;;;;;;;14.20;4.35;;;;;;;;;;5063874;28;20020;-73
2023/03/21 05:42:06;;;;;;;10.15;4.15;;;;;;;;;;5066671;28;20032;-73
2023/03/21 05:44:31;;;;;;;10.48;4.32;;;;;;;;;;5065940;28;20037;-73
2023/03/21 05:46:57;;;;;;;12.45;4.00;;;;;;;;;;5067995;28;20044;-73
2023/03/21 05:49:23;;;;;;;8.38;4.38;;;;;;;;;;5063343;28;20183;-72
2023/03/21 05:51:48;;;;;;;12.57;4.20;;;;;;;;;;5061344;28;20020;-72
2023/03/21 05:54:15;;;;;;;7.35;3.15;;;;;;;;;;5067806;28;20021;-72
2023/03/21 05:56:41;;;;;;;8.07;2.75;;;;;;;;;;5067667;28;20457;-72
2023/03/21 05:59:07;;;;;;;12.18;4.10;;;;;;;;;;5067413;28;20521;-72
2023/03/21 06:01:32;;;;;;;7.47;3.60;;;;;;;;;;5064763;28;20028;-72
2023/03/21 06:03:57;;;;;;;10.10;3.85;;;;;;;;;;5067721;28;20017;-72
2023/03/21 06:06:23;;;;;;;8.95;4.40;;;;;;;;;;5067853;28;20029;-71
2023/03/21 06:08:48;;;;;;;9.90;4.13;;;;;;;;;;5067063;28;20455;-72
2023/03/21 06:11:35;;;;;;;9.52;3.60;;;;;;;;;;5066181;28;20037;-72
2023/03/21 06:14:01;;;;;;;5.82;3.38;;;;;;;;;;5048568;28;20048;-73
2023/03/21 06:16:27;;;;;;;10.75;3.50;;;;;;;;;;5053458;28;20093;-72
2023/03/21 06:18:53;;;;;;;10.07;3.53;;;;;;;;;;5059666;28;20036;-73
2023/03/21 06:21:19;;;;;;;8.05;3.88;;;;;;;;;;5065335;28;20034;-72
2023/03/21 06:23:45;;;;;;;10.95;3.58;;;;;;;;;;5067055;28;20123;-73
2023/03/21 06:26:11;;;;;;;7.22;3.95;;;;;;;;;;5058943;28;20105;-73
2023/03/21 06:28:37;;;;;;;11.80;3.35;;;;;;;;;;5059203;28;20511;-73
2023/03/21 06:31:03;;;;;;;8.27;3.75;;;;;;;;;;5066074;28;20044;-73
2023/03/21 06:33:28;;;;;;;7.05;3.10;;;;;;;;;;5064830;28;20028;-72
2023/03/21 06:35:55;;;;;;;8.65;3.65;;;;;;;;;;5066711;28;20457;-73
2023/03/21 06:38:21;;;;;;;7.32;3.28;;;;;;;;;;5067110;28;20124;-73
2023/03/21 06:40:47;;;;;;;7.65;3.33;;;;;;;;;;5065366;28;20170;-73
2023/03/21 06:43:14;;;;;;;6.05;3.08;;;;;;;;;;5064796;28;20169;-73
2023/03/21 06:45:40;;;;;;;19.33;3.30;;;;;;;;;;5057017;28;20021;-72
2023/03/21 06:48:05;;;;;;;7.15;2.70;;;;;;;;;;5050267;28;20044;-72
2023/03/21 06:50:31;;;;;;;11.88;3.50;;;;;;;;;;5061228;28;20498;-72
2023/03/21 06:52:58;;;;;;;6.68;2.28;;;;;;;;;;5045948;28;20070;-73
2023/03/21 06:55:25;;;;;;;7.30;3.20;;;;;;;;;;5043969;28;20124;-72
2023/03/21 06:57:55;;;;;;;5.22;2.60;;;;;;;;;;5051524;28;20105;-72
2023/03/21 07:00:21;;;;;;;3.17;2.13;;;;;;;;;;5063332;28;20043;-72
2023/03/21 07:02:47;;;;;;;5.63;2.67;;;;;;;;;;5064936;28;20037;-72
2023/03/21 07:05:13;;;;;;;3.55;2.25;;;;;;;;;;5065375;28;20206;-73
2023/03/21 07:07:39;;;;;;;5.15;2.78;;;;;;;;;;5065037;28;20137;-72
2023/03/21 07:10:05;;;;;;;8.93;3.22;;;;;;;;;;5065944;28;20039;-73
2023/03/21 07:12:34;;;;;;;6.07;3.00;;;;;;;;;;5065324;28;20028;-72
2023/03/21 07:15:03;;;;;;;5.50;3.58;;;;;;;;;;5062438;28;20068;-72
2023/03/21 07:17:29;;;;;;;5.53;3.00;;;;;;;;;;5052978;28;20037;-72
2023/03/21 07:19:54;;;;;;;4.20;2.33;;;;;;;;;;5062930;28;20046;-72
2023/03/21 07:22:20;;;;;;;8.90;3.58;;;;;;;;;;5061125;28;20507;-72
2023/03/21 07:24:48;;;;;;;7.22;2.88;;;;;;;;;;5049178;28;20033;-72
2023/03/21 07:27:14;;;;;;;9.88;2.83;;;;;;;;;;5057729;28;20082;-72
2023/03/21 07:29:40;;;;;;;7.95;3.22;;;;;;;;;;5061694;28;20082;-72
2023/03/21 07:32:05;;;;;;;7.40;3.35;;;;;;;;;;5063879;28;20028;-72
2023/03/21 07:34:32;;;;;;;6.68;2.75;;;;;;;;;;5064159;28;20043;-72
2023/03/21 07:36:58;;;;;;;8.45;3.50;;;;;;;;;;5060812;28;20119;-72
2023/03/21 07:39:24;;;;;;;8.90;3.17;;;;;;;;;;5064170;28;20111;-72
2023/03/21 07:41:50;;;;;;;8.10;3.92;;;;;;;;;;5057634;28;20060;-72
2023/03/21 07:44:16;;;;;;;10.75;3.75;;;;;;;;;;5055268;28;20068;-73
2023/03/21 07:46:41;;;;;;;16.10;4.47;;;;;;;;;;5058258;28;20736;-73
2023/03/21 07:49:07;;;;;;;4.57;2.33;;;;;;;;;;5057128;28;20028;-72
2023/03/21 07:51:34;;;;;;;6.03;2.42;;;;;;;;;;5058255;28;20029;-72
2023/03/21 07:54:00;;;;;;;7.88;3.58;;;;;;;;;;5063881;28;20029;-73
2023/03/21 07:56:25;;;;;;;10.23;3.20;;;;;;;;;;5061829;28;20041;-72
2023/03/21 07:58:50;;;;;;;8.85;3.40;;;;;;;;;;5063597;28;20125;-72
2023/03/21 08:01:16;;;;;;;7.97;4.50;;;;;;;;;;5062415;28;20422;-73
2023/03/21 08:03:42;;;;;;;8.52;4.22;;;;;;;;;;5064419;28;20107;-72
2023/03/21 08:06:08;;;;;;;6.90;3.10;;;;;;;;;;5063013;28;20414;-72
2023/03/21 08:08:33;;;;;;;8.13;3.22;;;;;;;;;;5065060;28;20503;-72
2023/03/21 08:10:58;;;;;;;7.75;2.85;;;;;;;;;;5064942;28;20033;-72
2023/03/21 08:13:24;;;;;;;10.05;3.00;;;;;;;;;;5063990;28;20028;-72
2023/03/21 08:15:50;;;;;;;4.32;2.33;;;;;;;;;;5062618;28;20031;-72
2023/03/21 08:18:15;;;;;;;6.93;2.53;;;;;;;;;;5063139;28;20032;-72
2023/03/21 08:20:41;;;;;;;9.00;3.00;;;;;;;;;;5064951;28;20074;-72
2023/03/21 08:23:06;;;;;;;6.88;3.42;;;;;;;;;;5062994;28;20032;-72
2023/03/21 08:25:32;;;;;;;8.80;3.22;;;;;;;;;;5061524;28;20059;-72
2023/03/21 08:27:57;;;;;;;6.20;3.03;;;;;;;;;;5062365;28;20111;-72
2023/03/21 08:30:26;;;;;;;9.55;3.40;;;;;;;;;;5062442;28;20659;-72
2023/03/21 08:32:56;;;;;;;8.23;2.92;;;;;;;;;;5062617;28;20032;-72
2023/03/21 08:35:21;;;;;;;5.60;2.53;;;;;;;;;;5063263;28;20575;-73
2023/03/21 08:37:47;;;;;;;3.08;1.75;;;;;;;;;;5064927;28;20044;-72
2023/03/21 08:40:15;;;;;;;7.15;3.38;;;;;;;;;;5064520;28;20024;-73
2023/03/21 08:42:40;;;;;;;4.45;2.80;;;;;;;;;;5065330;28;20081;-73
2023/03/21 08:45:07;;;;;;;4.80;2.60;;;;;;;;;;5080251;28;20036;-72
2023/03/21 08:47:33;;;;;;;7.25;2.65;;;;;;;;;;5064907;28;20029;-73
2023/03/21 08:49:58;;;;;;;4.22;2.13;;;;;;;;;;5059845;28;20082;-73
2023/03/21 08:52:25;;;;;;;6.20;2.45;;;;;;;;;;5062234;28;20077;-72
2023/03/21 08:54:51;;;;;;;5.43;2.55;;;;;;;;;;5063168;28;20029;-72
2023/03/21 08:57:16;;;;;;;5.85;2.50;;;;;;;;;;5067675;28;20043;-72
2023/03/21 08:59:42;;;;;;;6.43;2.90;;;;;;;;;;5067062;28;20077;-73
2023/03/21 09:02:09;;;;;;;7.57;2.60;;;;;;;;;;5066535;28;20653;-73
2023/03/21 09:04:35;;;;;;;4.50;2.40;;;;;;;;;;5058916;28;20024;-73
2023/03/21 09:07:04;;;;;;;4.97;2.65;;;;;;;;;;5065227;28;20657;-72
2023/03/21 09:09:29;;;;;;;5.32;2.60;;;;;;;;;;5067592;28;20032;-72
2023/03/21 09:11:55;;;;;;;4.60;2.53;;;;;;;;;;5066778;28;20473;-73
2023/03/21 09:14:20;;;;;;;4.57;2.67;;;;;;;;;;5099553;28;20037;-73
2023/03/21 09:16:45;;;;;;;7.05;2.90;;;;;;;;;;5067826;28;20101;-73
2023/03/21 09:19:11;;;;;;;7.82;2.83;;;;;;;;;;5068933;28;20765;-73
2023/03/21 09:21:37;;;;;;;6.65;2.80;;;;;;;;;;5067308;28;20070;-73
2023/03/21 09:24:05;;;;;;;7.20;3.15;;;;;;;;;;5068615;28;20446;-72
2023/03/21 09:26:31;;;;;;;5.47;2.58;;;;;;;;;;5067472;28;20078;-73
2023/03/21 09:28:57;;;;;;;6.55;2.45;;;;;;;;;;5065085;28;20040;-73
2023/03/21 09:31:23;;;;;;;6.28;3.50;;;;;;;;;;5068812;28;20028;-73
2023/03/21 09:33:50;;;;;;;6.28;2.22;;;;;;;;;;5067355;28;20074;-73
2023/03/21 09:36:17;;;;;;;6.18;2.97;;;;;;;;;;5069041;28;20506;-73
2023/03/21 09:38:44;;;;;;;4.97;2.80;;;;;;;;;;5069001;28;20508;-73
2023/03/21 09:41:24;;;;;;;4.13;2.00;;;;;;;;;;5066167;28;20035;-73
2023/03/21 09:44:16;;;;;;;6.90;2.97;;;;;;;;;;5067369;28;20470;-73
2023/03/21 09:46:54;;;;;;;4.10;1.73;;;;;;;;;;5050911;28;20033;-73
2023/03/21 09:49:57;;;;;;;5.25;2.60;;;;;;;;;;5100340;28;20052;-73
2023/03/21 09:52:28;;;;;;;12.18;2.72;;;;;;;;;;5035932;28;20060;-73
2023/03/21 09:54:55;;;;;;;9.95;2.55;;;;;;;;;;5067249;28;20067;-74
2023/03/21 09:57:42;;;;;;;7.03;3.28;;;;;;;;;;5068529;28;20032;-74
2023/03/21 10:00:19;;;;;;;8.27;2.90;;;;;;;;;;5061686;28;20072;-73
2023/03/21 10:02:50;;;;;;;4.72;2.50;;;;;;;;;;5059187;28;20043;-73
2023/03/21 10:05:21;;;;;;;4.28;2.67;;;;;;;;;;5056557;28;20040;-73
2023/03/21 10:08:03;;;;;;;4.78;2.72;;;;;;;;;;5062061;28;20093;-73
2023/03/21 10:10:33;;;;;;;8.30;3.08;;;;;;;;;;5065952;28;20028;-74
2023/03/21 10:12:58;;;;;;;6.22;2.97;;;;;;;;;;5064693;28;20103;-74
2023/03/21 10:15:25;;;;;;;7.28;2.55;;;;;;;;;;5066565;28;20103;-72
2023/03/21 10:17:59;;;;;;;6.03;3.00;;;;;;;;;;5065567;28;20045;-73
2023/03/21 10:20:30;;;;;;;7.88;2.97;;;;;;;;;;5066906;28;20037;-73
2023/03/21 10:22:58;;;;;;;5.32;2.40;;;;;;;;;;5066628;28;20055;-73
2023/03/21 10:25:30;;;;;;;5.90;2.78;;;;;;;;;;5067936;28;20214;-72
2023/03/21 10:27:55;;;;;;;5.20;2.53;;;;;;;;;;5063907;28;20483;-72
2023/03/21 10:30:36;;;;;;;8.30;3.00;;;;;;;;;;5066191;28;20039;-72
2023/03/21 10:33:04;;;;;;;5.05;2.58;;;;;;;;;;5063372;28;20550;-70
2023/03/21 10:35:35;;;;;;;11.63;3.13;;;;;;;;;;5069730;28;20511;-72
2023/03/21 10:38:02;;;;;;;8.57;3.25;;;;;;;;;;5062769;28;20036;-72
2023/03/21 10:40:27;;;;;;;6.45;3.45;;;;;;;;;;5066861;28;20581;-72
2023/03/21 10:43:14;;;;;;;12.02;4.18;;;;;;;;;;5064306;28;20028;-72
2023/03/21 10:45:39;;;;;;;9.40;4.03;;;;;;;;;;5064186;28;20399;-73
2023/03/21 10:48:06;;;;;;;12.70;3.55;;;;;;;;;;5063605;28;20048;-72
2023/03/21 10:50:32;;;;;;;7.13;3.65;;;;;;;;;;5065128;28;20589;-72
2023/03/21 10:52:59;;;;;;;9.20;3.35;;;;;;;;;;5066809;28;20032;-72
2023/03/21 10:55:32;;;;;;;8.07;3.35;;;;;;;;;;5066378;28;20056;-72
2023/03/21 10:58:07;;;;;;;6.82;3.78;;;;;;;;;;5066637;28;20600;-72
2023/03/21 11:00:43;;;;;;;7.72;3.60;;;;;;;;;;5067119;28;20029;-72
2023/03/21 11:03:47;;;;;;;9.38;3.90;;;;;;;;;;5063582;28;20044;-72
2023/03/21 11:06:26;;;;;;;8.23;4.03;;;;;;;;;;5046846;28;20041;-72
2023/03/21 11:08:59;;;;;;;8.57;3.88;;;;;;;;;;5045427;28;20044;-72
2023/03/21 11:11:39;;;;;;;7.60;3.60;;;;;;;;;;5047328;28;20038;-72
2023/03/21 11:14:08;;;;;;;8.55;3.55;;;;;;;;;;5062104;28;20045;-72
2023/03/21 11:16:42;;;;;;;8.95;3.60;;;;;;;;;;5065388;28;20032;-72
2023/03/21 11:19:16;;;;;;;7.18;3.67;;;;;;;;;;5066360;28;20024;-71
2023/03/21 11:21:42;;;;;;;9.02;4.30;;;;;;;;;;5058878;28;20119;-71
2023/03/21 11:24:14;;;;;;;10.65;3.60;;;;;;;;;;5062825;28;20039;-72
2023/03/21 11:26:43;;;;;;;5.68;3.60;;;;;;;;;;5065789;28;20040;-72
2023/03/21 11:29:21;;;;;;;6.40;3.35;;;;;;;;;;5065901;28;20532;-72
2023/03/21 11:31:46;;;;;;;7.07;3.92;;;;;;;;;;5052448;28;21116;-72
2023/03/21 11:34:25;;;;;;;8.77;3.90;;;;;;;;;;5066166;28;20043;-71
2023/03/21 11:36:56;;;;;;;6.32;3.83;;;;;;;;;;5065911;28;20032;-71
2023/03/21 11:39:32;;;;;;;7.15;3.40;;;;;;;;;;5065132;28;20031;-71
2023/03/21 11:41:58;;;;;;;9.55;3.40;;;;;;;;;;5059622;28;20531;-71
2023/03/21 11:44:30;;;;;;;8.15;3.63;;;;;;;;;;5064085;28;20043;-71
2023/03/21 11:46:56;;;;;;;7.20;3.38;;;;;;;;;;5062431;28;20093;-71
2023/03/21 11:49:22;;;;;;;6.68;3.70;;;;;;;;;;5056030;28;20040;-71
2023/03/21 11:51:57;;;;;;;7.63;3.25;;;;;;;;;;5063649;28;20052;-71
2023/03/21 11:54:38;;;;;;;10.60;3.50;;;;;;;;;;5066254;28;20098;-71
2023/03/21 11:57:06;;;;;;;9.75;3.45;;;;;;;;;;5056477;28;20144;-71
2023/03/21 12:00:13;;;;;;;5.10;2.38;;;;;;;;;;5057250;28;20044;-71
2023/03/21 12:03:05;;;;;;;7.50;3.05;;;;;;;;;;5025255;28;20519;-71
2023/03/21 12:05:35;;;;;;;7.63;3.35;;;;;;;;;;5056288;28;20036;-71
2023/03/21 12:08:18;;;;;;;6.03;2.97;;;;;;;;;;5063162;28;20072;-72
2023/03/21 12:10:57;;;;;;;7.60;3.40;;;;;;;;;;5064471;28;20171;-71
2023/03/21 12:14:02;;;;;;;6.47;3.83;;;;;;;;;;5062004;28;20036;-71
2023/03/21 12:16:40;;;;;;;8.93;4.22;;;;;;;;;;5064519;28;20044;-72
2023/03/21 12:19:32;;;;;;;5.70;3.03;;;;;;;;;;5064885;28;20102;-71
2023/03/21 12:22:13;;;;;;;8.38;3.58;;;;;;;;;;5064908;28;20119;-72
2023/03/21 12:24:55;;;;;;;6.05;3.28;;;;;;;;;;5064952;28;20042;-72
2023/03/21 12:27:20;;;;;;;8.02;3.45;;;;;;;;;;5039711;28;20541;-72
2023/03/21 12:29:55;;;;;;;8.00;3.70;;;;;;;;;;5026986;28;20539;-72
2023/03/21 12:32:39;;;;;;;6.05;3.10;;;;;;;;;;5032720;28;20049;-71
2023/03/21 12:35:10;;;;;;;10.38;4.65;;;;;;;;;;5044031;28;20056;-72
2023/03/21 12:37:57;;;;;;;5.72;4.13;;;;;;;;;;5046613;28;20040;-72
2023/03/21 12:40:51;;;;;;;5.95;3.90;;;;;;;;;;5063177;28;20048;-72
2023/03/21 12:43:29;;;;;;;7.38;3.53;;;;;;;;;;5053625;28;20037;-71
2023/03/21 12:46:01;;;;;;;7.65;4.10;;;;;;;;;;5049139;28;20031;-71
2023/03/21 12:48:39;;;;;;;8.65;3.65;;;;;;;;;;5064939;28;20028;-72
2023/03/21 12:51:09;;;;;;;8.05;4.40;;;;;;;;;;5061047;28;20043;-72
2023/03/21 12:53:46;;;;;;;9.18;3.67;;;;;;;;;;5056091;28;20609;-72
2023/03/21 12:56:19;;;;;;;5.63;3.25;;;;;;;;;;5061639;28;20044;-71
2023/03/21 12:58:53;;;;;;;9.25;3.70;;;;;;;;;;5063319;28;20040;-71
2023/03/21 13:01:21;;;;;;;7.93;3.85;;;;;;;;;;5061103;28;20121;-71
2023/03/21 13:04:02;;;;;;;18.00;4.07;;;;;;;;;;5061446;28;20016;-71
2023/03/21 13:06:29;;;;;;;9.18;3.72;;;;;;;;;;5061887;28;20016;-71
2023/03/21 13:09:05;;;;;;;7.97;3.70;;;;;;;;;;5062880;28;20032;-72
2023/03/21 13:11:32;;;;;;;12.77;4.60;;;;;;;;;;5064089;28;20032;-72
2023/03/21 13:14:05;;;;;;;7.80;3.72;;;;;;;;;;5062729;28;20064;-71
2023/03/21 13:16:35;;;;;;;7.63;3.78;;;;;;;;;;5058774;28;20164;-72
2023/03/21 13:19:25;;;;;;;7.32;3.60;;;;;;;;;;5061734;28;20068;-72
2023/03/21 13:22:27;;;;;;;7.65;4.25;;;;;;;;;;5057196;28;20021;-72
2023/03/21 13:25:17;;;;;;;7.35;4.78;;;;;;;;;;4984826;28;20042;-72
2023/03/21 13:27:46;;;;;;;9.82;4.55;;;;;;;;;;5056820;28;20060;-72
2023/03/21 13:30:27;;;;;;;9.65;4.82;;;;;;;;;;5062751;28;20047;-72
2023/03/21 13:33:20;;;;;;;9.88;4.88;;;;;;;;;;5061246;28;20510;-72
2023/03/21 13:35:55;;;;;;;9.70;5.30;;;;;;;;;;5051103;28;20040;-71
2023/03/21 13:38:25;;;;;;;8.38;5.60;;;;;;;;;;5045562;28;20167;-72
2023/03/21 13:40:57;;;;;;;12.60;5.40;;;;;;;;;;5044962;28;20033;-72
2023/03/21 13:43:34;;;;;;;8.80;5.10;;;;;;;;;;5066486;28;20080;-71
2023/03/21 13:46:24;;;;;;;10.70;5.57;;;;;;;;;;5066285;28;20024;-72
2023/03/21 13:48:52;;;;;;;11.30;5.38;;;;;;;;;;5067677;28;20115;-73
2023/03/21 13:51:27;;;;;;;9.65;4.80;;;;;;;;;;5067319;28;20032;-71
2023/03/21 13:54:03;;;;;;;11.32;5.68;;;;;;;;;;5065875;28;20426;-73
2023/03/21 13:56:34;;;;;;;10.63;6.28;;;;;;;;;;5065992;28;20033;-70
2023/03/21 13:59:02;;;;;;;11.40;5.97;;;;;;;;;;5064576;28;20040;-70
2023/03/21 14:01:37;;;;;;;13.23;5.28;;;;;;;;;;5061082;28;20086;-70
2023/03/21 14:04:13;;;;;;;9.23;4.57;;;;;;;;;;5063948;28;20107;-71
2023/03/21 14:06:41;;;;;;;8.88;4.82;;;;;;;;;;5062521;28;20020;-71
2023/03/21 14:09:08;;;;;;;14.50;8.73;;;;;;;;;;5067061;28;20564;-71
2023/03/21 14:11:35;;;;;;;10.50;5.07;;;;;;;;;;5064202;28;20481;-71
2023/03/21 14:14:02;;;;;;;11.77;5.15;;;;;;;;;;5074193;28;20125;-71
2023/03/21 14:16:29;;;;;;;8.93;4.43;;;;;;;;;;5060722;28;20136;-71
2023/03/21 14:19:01;;;;;;;11.35;4.97;;;;;;;;;;5064517;28;20036;-71
2023/03/21 14:21:29;;;;;;;10.68;5.28;;;;;;;;;;5066952;28;20024;-72
2023/03/21 14:24:06;;;;;;;9.60;5.28;;;;;;;;;;5061028;28;20044;-71
2023/03/21 14:26:39;;;;;;;11.10;5.60;;;;;;;;;;5063192;28;20464;-70
2023/03/21 14:29:06;;;;;;;9.85;4.95;;;;;;;;;;5066214;28;20039;-72
2023/03/21 14:31:32;;;;;;;17.75;10.93;;;;;;;;;;5065596;28;20187;-72
2023/03/21 14:34:00;;;;;;;15.20;5.72;;;;;;;;;;5066457;28;20403;-71
2023/03/21 14:36:31;;;;;;;12.02;5.68;;;;;;;;;;5065305;28;20027;-71
2023/03/21 14:39:13;;;;;;;9.75;5.63;;;;;;;;;;5062348;28;20067;-72
2023/03/21 14:41:49;;;;;;;10.80;5.28;;;;;;;;;;5063379;28;20040;-71
2023/03/21 14:44:24;;;;;;;11.82;6.00;;;;;;;;;;5062560;28;20028;-72
2023/03/21 14:47:17;;;;;;;9.55;5.00;;;;;;;;;;5063058;28;20090;-73
2023/03/21 14:49:42;;;;;;;6.88;4.53;;;;;;;;;;5062731;28;20036;-72
2023/03/21 14:52:17;;;;;;;8.10;5.07;;;;;;;;;;5065838;28;20035;-72
2023/03/21 14:54:45;;;;;;;13.30;7.65;;;;;;;;;;5065067;28;20029;-72
2023/03/21 14:57:21;;;;;;;11.20;5.47;;;;;;;;;;5065247;28;20531;-72
2023/03/21 14:59:51;;;;;;;13.55;5.88;;;;;;;;;;5062366;28;20575;-71